createdAt,value
2022-10-11T00:01:52.950Z,102489.63
2022-10-11T00:04:19.350Z,102475.59
2022-10-11T00:06:47.166Z,102484.88
2022-10-11T00:09:14.592Z,102477.53
2022-10-11T00:11:40.960Z,102490.53
2022-10-11T00:14:07.418Z,102480.72
2022-10-11T00:16:34.110Z,102490.97
2022-10-11T00:19:00.499Z,102483.53
2022-10-11T00:21:27.100Z,102493.53
2022-10-11T00:23:53.586Z,102481.38
2022-10-11T00:26:19.990Z,102492.31
2022-10-11T00:28:46.505Z,102501.59
2022-10-11T00:31:15.650Z,102513.78
2022-10-11T00:33:42.041Z,102499.75
2022-10-11T00:36:09.545Z,102502.47
2022-10-11T00:38:36.214Z,102528.06
2022-10-11T00:41:02.721Z,102507.50
2022-10-11T00:43:30.697Z,102525.72
2022-10-11T00:45:56.984Z,102527.66
2022-10-11T00:48:42.350Z,102524.84
2022-10-11T00:51:26.275Z,102519.47
2022-10-11T00:53:53.469Z,102529.00
2022-10-11T00:56:24.233Z,102510.81
2022-10-11T00:58:50.773Z,102506.56
2022-10-11T01:01:17.197Z,102508.63
2022-10-11T01:03:44.233Z,102500.03
2022-10-11T01:06:10.648Z,102514.72
2022-10-11T01:08:38.584Z,102515.53
2022-10-11T01:11:05.781Z,102512.44
2022-10-11T01:13:51.217Z,102512.03
2022-10-11T01:16:40.742Z,102530.84
2022-10-11T01:19:16.351Z,102533.44
2022-10-11T01:21:49.170Z,102531.03
2022-10-11T01:24:37.314Z,102536.19
2022-10-11T01:27:09.679Z,102536.41
2022-10-11T01:29:45.273Z,102511.69
2022-10-11T01:32:26.198Z,102514.19
2022-10-11T01:34:59.752Z,102519.03
2022-10-11T01:37:31.902Z,102532.13
2022-10-11T01:40:09.675Z,102523.97
2022-10-11T01:42:40.149Z,102527.28
2022-10-11T01:45:12.845Z,102541.56
2022-10-11T01:47:39.237Z,102543.94
2022-10-11T01:50:08.022Z,102536.41
2022-10-11T01:52:35.889Z,102547.25
2022-10-11T01:55:25.604Z,102546.34
2022-10-11T01:58:09.991Z,102532.00
2022-10-11T02:00:42.421Z,102558.25
2022-10-11T02:03:19.689Z,102554.66
2022-10-11T02:05:45.946Z,102556.00
2022-10-11T02:08:31.028Z,102558.38
2022-10-11T02:11:00.463Z,102555.25
2022-10-11T02:13:31.660Z,102558.34
2022-10-11T02:16:02.069Z,102547.31
2022-10-11T02:18:34.556Z,102558.78
2022-10-11T02:21:02.680Z,102554.78
2022-10-11T02:23:36.211Z,102545.16
2022-10-11T02:26:05.174Z,102550.53
2022-10-11T02:28:35.888Z,102549.19
2022-10-11T02:31:04.260Z,102556.72
2022-10-11T02:33:39.076Z,102556.59
2022-10-11T02:36:10.942Z,102558.97
2022-10-11T02:38:45.109Z,102561.56
2022-10-11T02:41:32.579Z,102557.63
2022-10-11T02:44:09.413Z,102542.13
2022-10-11T02:46:36.741Z,102548.75
2022-10-11T02:49:03.304Z,102559.19
2022-10-11T02:51:30.859Z,102574.50
2022-10-11T02:53:57.284Z,102569.84
2022-10-11T02:56:23.635Z,102545.97
2022-10-11T02:58:50.033Z,102552.47
2022-10-11T03:01:16.497Z,102557.34
2022-10-11T03:03:42.850Z,102558.06
2022-10-11T03:06:09.790Z,102573.16
2022-10-11T03:08:36.166Z,102571.81
2022-10-11T03:11:02.537Z,102572.53
2022-10-11T03:13:28.901Z,102572.81
2022-10-11T03:16:02.934Z,102548.94
2022-10-11T03:18:30.636Z,102573.25
2022-10-11T03:20:57.081Z,102568.41
2022-10-11T03:23:23.431Z,102572.53
2022-10-11T03:25:51.851Z,102566.09
2022-10-11T03:28:18.692Z,102572.41
2022-10-11T03:30:49.705Z,102583.97
2022-10-11T03:33:17.099Z,102558.13
2022-10-11T03:35:47.763Z,102574.72
2022-10-11T03:38:16.176Z,102583.63
2022-10-11T03:40:43.574Z,102586.22
2022-10-11T03:43:10.578Z,102587.25
2022-10-11T03:45:37.068Z,102583.59
2022-10-11T03:48:04.210Z,102575.63
2022-10-11T03:50:31.251Z,102592.38
2022-10-11T03:52:57.624Z,102578.50
2022-10-11T03:55:24.000Z,102579.47
2022-10-11T03:57:50.351Z,102598.50
2022-10-11T04:00:17.078Z,102596.41
2022-10-11T04:02:43.429Z,102588.81
2022-10-11T04:05:10.296Z,102598.88
2022-10-11T04:07:36.656Z,102594.69
2022-10-11T04:10:03.125Z,102603.63
2022-10-11T04:12:29.494Z,102611.28
2022-10-11T04:14:55.843Z,102594.69
2022-10-11T04:17:22.203Z,102589.34
2022-10-11T04:19:48.548Z,102609.41
2022-10-11T04:22:14.919Z,102620.28
2022-10-11T04:24:41.310Z,102607.19
2022-10-11T04:27:07.722Z,102615.06
2022-10-11T04:29:34.164Z,102598.28
2022-10-11T04:32:00.550Z,102620.28
2022-10-11T04:34:26.921Z,102603.00
2022-10-11T04:36:53.290Z,102605.66
2022-10-11T04:39:19.697Z,102621.16
2022-10-11T04:41:46.065Z,102606.78
2022-10-11T04:44:12.420Z,102613.72
2022-10-11T04:46:38.885Z,102610.09
2022-10-11T04:49:05.469Z,102622.81
2022-10-11T04:51:33.641Z,102631.09
2022-10-11T04:54:00.018Z,102626.94
2022-10-11T04:56:26.422Z,102623.38
2022-10-11T04:58:54.425Z,102631.16
2022-10-11T05:01:21.151Z,102632.28
2022-10-11T05:03:48.388Z,102627.88
2022-10-11T05:06:14.846Z,102623.72
2022-10-11T05:08:41.287Z,102624.75
2022-10-11T05:11:11.371Z,102623.50
2022-10-11T05:13:37.860Z,102634.50
2022-10-11T05:16:10.431Z,102634.50
2022-10-11T05:18:37.195Z,102643.63
2022-10-11T05:21:09.485Z,102638.63
2022-10-11T05:23:37.067Z,102631.66
2022-10-11T05:26:04.247Z,102635.88
2022-10-11T05:28:31.391Z,102642.59
2022-10-11T05:30:58.369Z,102647.88
2022-10-11T05:33:25.870Z,102641.47
2022-10-11T05:35:52.821Z,102634.94
2022-10-11T05:38:19.288Z,102650.97
2022-10-11T05:40:45.733Z,102650.63
2022-10-11T05:43:12.280Z,102630.47
2022-10-11T05:45:39.537Z,102652.53
2022-10-11T05:48:06.057Z,102639.19
2022-10-11T05:50:32.570Z,102647.78
2022-10-11T05:52:59.043Z,102662.22
2022-10-11T05:55:25.640Z,102653.03
2022-10-11T05:57:56.214Z,102664.50
2022-10-11T06:00:23.795Z,102658.09
2022-10-11T06:02:50.174Z,102647.88
2022-10-11T06:05:16.904Z,102658.50
2022-10-11T06:07:43.346Z,102672.41
2022-10-11T06:10:09.933Z,102649.50
2022-10-11T06:12:36.316Z,102668.91
2022-10-11T06:15:03.992Z,102662.72
2022-10-11T06:17:30.513Z,102662.19
2022-10-11T06:19:56.894Z,102671.28
2022-10-11T06:22:23.336Z,102650.59
2022-10-11T06:24:49.758Z,102676.34
2022-10-11T06:27:16.229Z,102671.38
2022-10-11T06:29:42.592Z,102665.66
2022-10-11T06:32:09.065Z,102661.13
2022-10-11T06:34:35.437Z,102677.50
2022-10-11T06:37:01.825Z,102673.88
2022-10-11T06:39:28.267Z,102677.38
2022-10-11T06:41:54.659Z,102688.97
2022-10-11T06:44:21.085Z,102683.41
2022-10-11T06:46:47.447Z,102688.06
2022-10-11T06:49:13.837Z,102686.91
2022-10-11T06:51:40.242Z,102687.72
2022-10-11T06:54:06.781Z,102690.22
2022-10-11T06:56:33.189Z,102688.97
2022-10-11T06:59:00.173Z,102711.56
2022-10-11T07:01:27.078Z,102704.34
2022-10-11T07:03:55.303Z,102701.22
2022-10-11T07:06:23.761Z,102710.53
2022-10-11T07:08:50.344Z,102707.88
2022-10-11T07:11:22.408Z,102724.72
2022-10-11T07:13:51.060Z,102719.44
2022-10-11T07:16:18.000Z,102710.94
2022-10-11T07:18:45.015Z,102732.91
2022-10-11T07:21:13.512Z,102735.91
2022-10-11T07:23:39.958Z,102721.09
2022-10-11T07:26:07.544Z,102736.34
2022-10-11T07:28:34.945Z,102747.84
2022-10-11T07:31:12.798Z,102720.97
2022-10-11T07:33:39.387Z,102727.69
2022-10-11T07:36:06.791Z,102726.25
2022-10-11T07:38:33.918Z,102746.84
2022-10-11T07:41:05.257Z,102746.31
2022-10-11T07:43:31.743Z,102736.06
2022-10-11T07:46:03.946Z,102724.28
2022-10-11T07:48:31.624Z,102727.91
2022-10-11T07:51:18.886Z,102734.63
2022-10-11T07:53:47.508Z,102749.94
2022-10-11T07:56:17.823Z,102731.09
2022-10-11T07:58:44.653Z,102727.25
2022-10-11T08:01:11.649Z,102740.47
2022-10-11T08:03:38.188Z,102757.22
2022-10-11T08:06:08.939Z,102755.69
2022-10-11T08:08:36.318Z,102736.13
2022-10-11T08:11:02.875Z,102741.69
2022-10-11T08:13:29.260Z,102758.97
2022-10-11T08:15:56.270Z,102750.31
2022-10-11T08:18:22.644Z,102753.78
2022-10-11T08:20:49.032Z,102750.69
2022-10-11T08:23:17.023Z,102758.25
2022-10-11T08:25:45.210Z,102773.00
2022-10-11T08:28:16.587Z,102764.47
2022-10-11T08:30:50.782Z,102762.63
2022-10-11T08:33:18.078Z,102767.31
2022-10-11T08:35:44.563Z,102752.09
2022-10-11T08:38:11.226Z,102763.72
2022-10-11T08:40:37.639Z,102765.50
2022-10-11T08:43:06.923Z,102760.94
2022-10-11T08:45:39.419Z,102791.50
2022-10-11T08:48:18.088Z,102786.97
2022-10-11T08:50:47.264Z,102790.13
2022-10-11T08:53:21.653Z,102781.34
2022-10-11T08:55:51.140Z,102777.34
2022-10-11T08:58:21.482Z,102786.16
2022-10-11T09:00:51.909Z,102779.63
2022-10-11T09:03:39.975Z,102783.34
2022-10-11T09:06:15.208Z,102778.16
2022-10-11T09:09:05.942Z,102796.69
2022-10-11T09:11:32.220Z,102787.25
2022-10-11T09:14:11.041Z,102778.75
2022-10-11T09:16:55.623Z,102790.53
2022-10-11T09:19:40.715Z,102791.50
2022-10-11T09:22:37.834Z,102792.03
2022-10-11T09:25:23.535Z,102792.03
2022-10-11T09:28:02.746Z,102800.28
2022-10-11T09:30:29.830Z,102784.94
2022-10-11T09:33:19.825Z,102803.84
2022-10-11T09:35:51.812Z,102800.00
2022-10-11T09:38:26.675Z,102804.41
2022-10-11T09:41:06.073Z,102793.16
2022-10-11T09:43:32.479Z,102782.84
2022-10-11T09:45:58.893Z,102780.53
2022-10-11T09:48:30.547Z,102793.41
2022-10-11T09:51:03.178Z,102784.78
2022-10-11T09:54:03.464Z,102810.56
2022-10-11T09:56:31.414Z,102803.72
2022-10-11T09:59:14.553Z,102797.06
2022-10-11T10:01:40.989Z,102789.97
2022-10-11T10:04:11.943Z,102790.03
2022-10-11T10:06:38.871Z,102793.09
2022-10-11T10:09:27.180Z,102806.53
2022-10-11T10:11:54.369Z,102801.16
2022-10-11T10:14:26.687Z,102795.31
2022-10-11T10:17:01.837Z,102800.81
2022-10-11T10:19:28.483Z,102783.84
2022-10-11T10:21:55.817Z,102775.59
2022-10-11T10:24:34.705Z,102792.50
2022-10-11T10:27:10.239Z,102801.81
2022-10-11T10:29:37.686Z,102786.69
2022-10-11T10:32:20.608Z,102790.16
2022-10-11T10:34:55.482Z,102796.72
2022-10-11T10:37:56.988Z,102799.53
2022-10-11T10:40:39.545Z,102786.41
2022-10-11T10:43:06.169Z,102792.63
2022-10-11T10:45:44.489Z,102784.31
2022-10-11T10:49:11.690Z,102781.25
2022-10-11T10:51:48.406Z,102786.97
2022-10-11T10:54:43.118Z,102782.69
2022-10-11T10:57:31.380Z,102793.88
2022-10-11T10:59:57.594Z,102792.75
2022-10-11T11:02:40.639Z,102777.53
2022-10-11T11:05:17.989Z,102785.84
2022-10-11T11:07:54.193Z,102772.97
2022-10-11T11:10:30.553Z,102766.94
2022-10-11T11:13:19.212Z,102770.84
2022-10-11T11:16:12.978Z,102782.75
2022-10-11T11:18:50.606Z,102781.94
2022-10-11T11:21:25.057Z,102772.38
2022-10-11T11:24:07.001Z,102757.44
2022-10-11T11:26:44.725Z,102760.16
2022-10-11T11:29:23.193Z,102781.06
2022-10-11T11:32:05.374Z,102774.63
2022-10-11T11:34:38.748Z,102777.75
2022-10-11T11:37:30.748Z,102768.72
2022-10-11T11:40:10.539Z,102769.44
2022-10-11T11:42:45.016Z,102761.81
2022-10-11T11:45:27.214Z,102757.88
2022-10-11T11:48:06.750Z,102764.34
2022-10-11T11:50:58.514Z,102760.91
2022-10-11T11:53:40.237Z,102748.47
2022-10-11T11:56:31.880Z,102749.78
2022-10-11T11:59:23.313Z,102753.88
2022-10-11T12:01:59.491Z,102743.56
2022-10-11T12:04:29.876Z,102747.06
2022-10-11T12:07:21.371Z,102733.09
2022-10-11T12:09:50.632Z,102735.47
2022-10-11T12:12:36.446Z,102731.63
2022-10-11T12:15:09.021Z,102740.13
2022-10-11T12:17:56.346Z,102743.72
2022-10-11T12:20:25.720Z,102738.25
2022-10-11T12:23:25.269Z,102731.66
2022-10-11T12:26:18.279Z,102734.72
2022-10-11T12:28:58.341Z,102731.50
2022-10-11T12:31:30.197Z,102727.19
2022-10-11T12:34:43.061Z,102720.09
2022-10-11T12:37:19.088Z,102725.09
2022-10-11T12:39:53.061Z,102714.41
2022-10-11T12:42:40.421Z,102716.22
2022-10-11T12:45:13.069Z,102714.09
2022-10-11T12:48:03.621Z,102719.31
2022-10-11T12:50:51.318Z,102708.81
2022-10-11T12:53:17.586Z,102716.22
2022-10-11T12:55:49.793Z,102723.38
2022-10-11T12:58:29.621Z,102722.34
2022-10-11T13:00:57.788Z,102712.06
2022-10-11T13:03:39.297Z,102711.59
2022-10-11T13:06:22.050Z,102710.94
2022-10-11T13:08:54.476Z,102701.66
2022-10-11T13:11:24.005Z,102707.53
2022-10-11T13:14:17.917Z,102705.72
2022-10-11T13:17:16.878Z,102705.03
2022-10-11T13:19:43.492Z,102700.47
2022-10-11T13:22:19.207Z,102701.59
2022-10-11T13:24:45.685Z,102693.09
2022-10-11T13:27:24.186Z,102710.78
2022-10-11T13:29:53.119Z,102693.44
2022-10-11T13:32:25.082Z,102708.22
2022-10-11T13:35:19.724Z,102703.31
2022-10-11T13:37:49.450Z,102691.66
2022-10-11T13:40:17.722Z,102696.78
2022-10-11T13:42:48.357Z,102686.19
2022-10-11T13:45:18.454Z,102703.94
2022-10-11T13:47:45.862Z,102692.34
2022-10-11T13:50:15.438Z,102699.53
2022-10-11T13:52:55.922Z,102704.63
2022-10-11T13:55:42.465Z,102696.81
2022-10-11T13:58:18.408Z,102683.47
2022-10-11T14:01:18.589Z,102688.81
2022-10-11T14:03:58.083Z,102681.69
2022-10-11T14:06:25.153Z,102674.53
2022-10-11T14:08:56.065Z,102683.63
2022-10-11T14:11:35.183Z,102677.66
2022-10-11T14:14:47.532Z,102675.16
2022-10-11T14:17:16.807Z,102666.69
2022-10-11T14:19:44.994Z,102666.47
2022-10-11T14:22:18.228Z,102685.34
2022-10-11T14:24:48.116Z,102689.69
2022-10-11T14:27:20.591Z,102678.81
2022-10-11T14:30:00.501Z,102674.00
2022-10-11T14:32:34.669Z,102690.59
2022-10-11T14:35:01.148Z,102678.25
2022-10-11T14:37:27.616Z,102679.53
2022-10-11T14:39:54.003Z,102679.41
2022-10-11T14:42:20.413Z,102667.94
2022-10-11T14:44:47.160Z,102659.56
2022-10-11T14:47:15.831Z,102682.00
2022-10-11T14:49:42.674Z,102676.88
2022-10-11T14:52:12.257Z,102684.41
2022-10-11T14:54:38.560Z,102692.22
2022-10-11T14:57:05.158Z,102669.50
2022-10-11T14:59:34.639Z,102673.41
2022-10-11T15:02:02.106Z,102665.22
2022-10-11T15:04:29.084Z,102675.44
2022-10-11T15:06:56.902Z,102660.38
2022-10-11T15:09:23.377Z,102674.56
2022-10-11T15:11:51.158Z,102653.03
2022-10-11T15:14:26.443Z,102650.28
2022-10-11T15:16:53.101Z,102631.94
2022-10-11T15:19:22.175Z,102645.47
2022-10-11T15:21:49.094Z,102640.06
2022-10-11T15:24:15.716Z,102634.94
2022-10-11T15:26:42.272Z,102661.19
2022-10-11T15:29:11.215Z,102642.28
2022-10-11T15:31:37.638Z,102644.69
2022-10-11T15:34:04.112Z,102637.44
2022-10-11T15:36:30.651Z,102645.59
2022-10-11T15:38:57.225Z,102641.78
2022-10-11T15:41:23.957Z,102640.59
2022-10-11T15:43:50.554Z,102639.13
2022-10-11T15:46:19.760Z,102644.19
2022-10-11T15:48:47.129Z,102641.75
2022-10-11T15:51:13.549Z,102641.00
2022-10-11T15:53:39.977Z,102638.19
2022-10-11T15:56:09.312Z,102651.00
2022-10-11T15:58:38.485Z,102654.97
2022-10-11T16:01:30.317Z,102656.13
2022-10-11T16:03:58.304Z,102648.91
2022-10-11T16:06:24.920Z,102649.88
2022-10-11T16:08:53.037Z,102633.94
2022-10-11T16:11:19.447Z,102622.22
2022-10-11T16:13:45.899Z,102639.03
2022-10-11T16:16:12.580Z,102645.22
2022-10-11T16:18:39.322Z,102624.81
2022-10-11T16:21:15.181Z,102626.63
2022-10-11T16:23:41.489Z,102656.41
2022-10-11T16:26:15.034Z,102657.00
2022-10-11T16:28:52.387Z,102627.91
2022-10-11T16:31:20.868Z,102624.69
2022-10-11T16:33:47.937Z,102635.81
2022-10-11T16:36:32.424Z,102644.81
2022-10-11T16:39:04.240Z,102630.16
2022-10-11T16:41:30.846Z,102643.94
2022-10-11T16:43:57.313Z,102649.88
2022-10-11T16:46:23.873Z,102639.47
2022-10-11T16:48:50.278Z,102639.38
2022-10-11T16:51:16.665Z,102660.16
2022-10-11T16:53:43.137Z,102661.00
2022-10-11T16:56:11.869Z,102663.59
2022-10-11T16:58:38.381Z,102643.16
2022-10-11T17:01:09.547Z,102659.59
2022-10-11T17:03:36.658Z,102671.56
2022-10-11T17:06:12.790Z,102632.03
2022-10-11T17:08:39.349Z,102645.47
2022-10-11T17:11:06.334Z,102647.28
2022-10-11T17:13:32.805Z,102663.41
2022-10-11T17:15:59.389Z,102649.25
2022-10-11T17:18:30.043Z,102644.13
2022-10-11T17:21:33.628Z,102675.91
2022-10-11T17:26:48.719Z,102678.50
2022-10-11T17:29:31.168Z,102654.84
2022-10-11T17:31:58.121Z,102684.63
2022-10-11T17:34:24.598Z,102684.84
2022-10-11T17:36:50.993Z,102665.16
2022-10-11T17:39:19.809Z,102661.44
2022-10-11T17:41:46.540Z,102686.81
2022-10-11T17:44:13.213Z,102672.66
2022-10-11T17:46:39.741Z,102677.00
2022-10-11T17:49:07.710Z,102624.00
2022-10-11T17:51:35.804Z,102667.53
2022-10-11T17:54:02.978Z,102675.88
2022-10-11T17:56:33.705Z,102682.19
2022-10-11T17:59:03.197Z,102665.56
2022-10-11T18:01:29.827Z,102646.44
2022-10-11T18:03:58.599Z,102667.25
2022-10-11T18:06:28.787Z,102654.53
2022-10-11T18:08:57.123Z,102650.16
2022-10-11T18:11:23.726Z,102644.56
2022-10-11T18:13:51.958Z,102668.13
2022-10-11T18:16:20.927Z,102664.72
2022-10-11T18:18:47.511Z,102667.94
2022-10-11T18:21:13.983Z,102668.75
2022-10-11T18:23:40.973Z,102641.44
2022-10-11T18:26:16.077Z,102647.81
2022-10-11T18:28:43.331Z,102671.28
2022-10-11T18:31:14.134Z,102664.81
2022-10-11T18:33:42.013Z,102679.06
2022-10-11T18:36:10.335Z,102643.03
2022-10-11T18:38:38.006Z,102672.97
2022-10-11T18:41:08.641Z,102668.97
2022-10-11T18:43:35.344Z,102680.53
2022-10-11T18:46:06.512Z,102681.97
2022-10-11T18:48:33.358Z,102674.53
2022-10-11T18:51:18.455Z,102667.84
2022-10-11T18:53:45.531Z,102668.28
2022-10-11T18:56:12.776Z,102664.63
2022-10-11T18:58:40.301Z,102639.53
2022-10-11T19:01:13.176Z,102653.56
2022-10-11T19:03:39.599Z,102667.97
2022-10-11T19:06:08.825Z,102667.81
2022-10-11T19:08:35.439Z,102657.31
2022-10-11T19:11:08.448Z,102671.50
2022-10-11T19:13:35.671Z,102660.50
2022-10-11T19:16:14.417Z,102670.88
2022-10-11T19:18:44.256Z,102641.44
2022-10-11T19:21:12.844Z,102672.44
2022-10-11T19:23:44.595Z,102661.44
2022-10-11T19:26:14.512Z,102653.69
2022-10-11T19:28:40.922Z,102664.63
2022-10-11T19:31:11.104Z,102611.28
2022-10-11T19:33:37.482Z,102660.66
2022-10-11T19:36:05.328Z,102664.16
2022-10-11T19:38:33.509Z,102633.97
2022-10-11T19:41:01.126Z,102660.88
2022-10-11T19:43:27.743Z,102612.78
2022-10-11T19:46:04.771Z,102643.00
2022-10-11T19:48:31.762Z,102658.88
2022-10-11T19:51:02.814Z,102655.16
2022-10-11T19:53:29.217Z,102635.44
2022-10-11T19:55:55.589Z,102652.66
2022-10-11T19:58:21.951Z,102625.50
2022-10-11T20:00:48.867Z,102641.22
2022-10-11T20:03:15.235Z,102645.69
2022-10-11T20:05:41.617Z,102640.38
2022-10-11T20:08:07.978Z,102642.81
2022-10-11T20:10:34.325Z,102648.25
2022-10-11T20:13:00.692Z,102642.66
2022-10-11T20:15:27.101Z,102654.47
2022-10-11T20:17:53.547Z,102649.75
2022-10-11T20:20:20.160Z,102625.63
2022-10-11T20:22:46.618Z,102643.72
2022-10-11T20:25:12.980Z,102626.03
2022-10-11T20:27:42.327Z,102630.97
2022-10-11T20:30:09.882Z,102627.53
2022-10-11T20:32:36.249Z,102649.34
2022-10-11T20:35:02.748Z,102646.66
2022-10-11T20:37:29.105Z,102638.59
2022-10-11T20:39:55.468Z,102634.69
2022-10-11T20:42:24.288Z,102654.50
2022-10-11T20:44:52.849Z,102669.44
2022-10-11T20:47:19.209Z,102620.50
2022-10-11T20:49:45.581Z,102676.69
2022-10-11T20:52:12.009Z,102653.84
2022-10-11T20:54:40.520Z,102593.19
2022-10-11T20:57:07.046Z,102642.16
2022-10-11T20:59:33.398Z,102659.13
2022-10-11T21:01:59.864Z,102655.16
2022-10-11T21:04:26.242Z,102650.41
2022-10-11T21:06:52.623Z,102631.00
2022-10-11T21:09:19.113Z,102641.06
2022-10-11T21:11:45.716Z,102663.09
2022-10-11T21:14:13.779Z,102610.50
2022-10-11T21:16:40.212Z,102532.06
2022-10-11T21:19:06.625Z,102651.97
2022-10-11T21:21:33.014Z,102632.81
2022-10-11T21:24:01.342Z,102589.13
2022-10-11T21:26:28.652Z,102661.56
2022-10-11T21:28:55.153Z,102660.00
2022-10-11T21:31:22.381Z,102601.91
2022-10-11T21:33:49.109Z,102645.47
2022-10-11T21:36:20.477Z,102631.50
2022-10-11T21:38:48.021Z,102654.59
2022-10-11T21:41:17.075Z,102633.16
2022-10-11T21:43:43.625Z,102598.25
2022-10-11T21:47:04.962Z,102661.75
2022-10-11T21:49:17.477Z,102645.91
2022-10-11T21:51:43.900Z,102640.25
2022-10-11T21:54:10.243Z,102666.63
2022-10-11T21:56:36.623Z,102643.69
2022-10-11T21:59:06.500Z,102675.72
2022-10-11T22:01:36.769Z,102657.00
2022-10-11T22:04:09.737Z,102667.31
2022-10-11T22:06:37.298Z,102669.09
2022-10-11T22:09:04.753Z,102664.75
2022-10-11T22:11:31.213Z,102613.59
2022-10-11T22:13:57.824Z,102664.88
2022-10-11T22:16:24.210Z,102644.72
2022-10-11T22:18:53.312Z,102657.63
2022-10-11T22:21:22.168Z,102600.13
2022-10-11T22:23:50.041Z,102655.59
2022-10-11T22:26:18.691Z,102653.81
2022-10-11T22:28:48.569Z,102632.00
2022-10-11T22:31:15.831Z,102652.50
2022-10-11T22:33:42.503Z,102630.88
2022-10-11T22:36:10.348Z,102652.69
2022-10-11T22:38:37.377Z,102635.31
2022-10-11T22:41:03.743Z,102646.41
2022-10-11T22:43:30.125Z,102645.78
2022-10-11T22:45:56.608Z,102655.06
2022-10-11T22:48:23.113Z,102666.56
2022-10-11T22:50:49.517Z,102641.31
2022-10-11T22:53:16.068Z,102651.44
2022-10-11T22:55:42.415Z,102624.06
2022-10-11T22:58:08.936Z,102636.97
2022-10-11T23:00:35.373Z,102662.91
2022-10-11T23:03:01.810Z,102624.94
2022-10-11T23:05:28.217Z,102614.75
2022-10-11T23:07:54.590Z,102633.44
2022-10-11T23:10:21.044Z,102633.44
2022-10-11T23:12:47.599Z,102616.44
2022-10-11T23:15:15.181Z,102645.13
2022-10-11T23:17:42.124Z,102612.97
2022-10-11T23:20:09.060Z,102615.84
2022-10-11T23:22:35.564Z,102627.78
2022-10-11T23:25:01.912Z,102598.00
2022-10-11T23:27:29.732Z,102624.56
2022-10-11T23:29:56.161Z,102628.91
2022-10-11T23:32:22.569Z,102621.38
2022-10-11T23:34:48.928Z,102626.84
2022-10-11T23:37:15.279Z,102632.72
2022-10-11T23:39:41.643Z,102621.75
2022-10-11T23:42:07.992Z,102625.56
2022-10-11T23:44:34.340Z,102608.91
2022-10-11T23:47:00.697Z,102617.53
2022-10-11T23:49:27.046Z,102624.31
2022-10-11T23:51:53.404Z,102619.56
2022-10-11T23:54:19.761Z,102625.56
2022-10-11T23:56:46.125Z,102642.56
2022-10-11T23:59:12.522Z,102583.78
